createdAt,value
2022-11-29T00:05:56.046Z,32.207357859531776
2022-11-29T00:17:20.773Z,33.274247491638796
2022-11-29T00:23:48.671Z,34.625418060200666
2022-11-29T00:44:22.305Z,33.98996655518395
2022-11-29T00:54:25.410Z,32.74247491638796
2022-11-29T01:06:44.850Z,32.080267558528426
2022-11-29T01:13:13.898Z,31.85284280936455
2022-11-29T01:25:49.725Z,33.48829431438127
2022-11-29T01:41:15.345Z,35.197324414715716
2022-11-29T01:47:44.363Z,34.020066889632105
2022-11-29T02:00:13.349Z,35.458193979933114
2022-11-29T02:06:44.219Z,33.88628762541806
2022-11-29T02:17:52.410Z,34.42809364548495
2022-11-29T02:26:25.578Z,33.61204013377927
2022-11-29T02:33:00.873Z,35.30434782608695
2022-11-29T02:48:38.902Z,34.94314381270903
2022-11-29T02:55:12.696Z,34.79598662207358
2022-11-29T03:01:42.569Z,35.40468227424749
2022-11-29T03:13:19.318Z,34.94314381270903
2022-11-29T03:20:21.267Z,35.468227424749166
2022-11-29T03:26:53.054Z,35.15719063545151
2022-11-29T03:35:17.906Z,35.15719063545151
2022-11-29T03:44:33.862Z,36.618729096989966
2022-11-29T03:51:36.469Z,36.1505016722408
2022-11-29T04:02:45.302Z,35.013377926421406
2022-11-29T04:11:26.912Z,35.759197324414714
2022-11-29T04:18:43.800Z,35.56521739130435
2022-11-29T04:25:15.361Z,35.77591973244147
2022-11-29T04:33:37.923Z,37.4180602006689
2022-11-29T04:40:07.266Z,38.53511705685619
2022-11-29T04:46:36.132Z,38.91304347826087
2022-11-29T04:53:07.204Z,39.48494983277592
2022-11-29T05:07:14.109Z,35.36789297658863
2022-11-29T05:13:48.424Z,36.013377926421406
2022-11-29T05:20:19.272Z,37.68896321070234
2022-11-29T05:26:51.943Z,39.525083612040135
2022-11-29T05:33:37.941Z,40.31438127090301
2022-11-29T05:44:30.089Z,40.17391304347826
2022-11-29T06:10:34.040Z,43.214046822742475
2022-11-29T06:25:28.500Z,39.869565217391305
2022-11-29T06:32:32.575Z,40.74581939799331
2022-11-29T06:39:01.322Z,37.96989966555184
2022-11-29T06:45:32.565Z,38.97658862876254
2022-11-29T06:58:02.750Z,38.48494983277592
2022-11-29T07:04:33.923Z,39.83277591973244
2022-11-29T07:11:06.770Z,38.57190635451505
2022-11-29T07:17:39.263Z,38.53846153846154
2022-11-29T07:25:48.062Z,37.836120401337794
2022-11-29T07:32:16.575Z,38.38795986622073
2022-11-29T07:38:45.664Z,36.14046822742475
2022-11-29T07:50:49.736Z,35.12040133779264
2022-11-29T07:57:20.995Z,35.551839464882946
2022-11-29T08:03:49.853Z,36.7056856187291
2022-11-29T08:15:23.648Z,36.020066889632105
2022-11-29T08:21:51.333Z,35.40468227424749
2022-11-29T08:28:20.524Z,36.1505016722408
2022-11-29T08:36:07.947Z,36.83946488294314
2022-11-29T08:47:11.183Z,38.725752508361204
2022-11-29T08:59:59.663Z,40.47826086956522
2022-11-29T09:07:40.112Z,38.74247491638796
2022-11-29T09:14:08.526Z,38.69565217391305
2022-11-29T09:20:35.932Z,39.01003344481605
2022-11-29T09:27:03.008Z,40.34782608695652
2022-11-29T09:35:30.832Z,39.53846153846154
2022-11-29T09:43:17.678Z,39.88294314381271
2022-11-29T09:49:47.064Z,39.62207357859532
2022-11-29T09:56:14.955Z,40.12040133779264
2022-11-29T10:02:43.865Z,39.72240802675585
2022-11-29T10:09:13.108Z,39.07357859531773
2022-11-29T10:16:08.430Z,38.752508361204015
2022-11-29T10:22:36.929Z,38.49832775919732
2022-11-29T10:29:05.303Z,38.65217391304348
2022-11-29T10:35:33.709Z,39.01003344481605
2022-11-29T10:42:02.320Z,41.53846153846154
2022-11-29T10:54:55.179Z,39.508361204013376
2022-11-29T11:01:23.760Z,41.0066889632107
2022-11-29T11:14:59.789Z,42.852842809364546
2022-11-29T11:27:51.754Z,41.37792642140468
2022-11-29T11:34:20.266Z,40.51839464882943
2022-11-29T11:53:56.498Z,40.55518394648829
2022-11-29T12:05:10.245Z,41.09030100334448
2022-11-29T12:11:38.455Z,42.02341137123746
2022-11-29T12:18:06.031Z,43.220735785953174
2022-11-29T12:24:33.466Z,41.220735785953174
2022-11-29T12:31:00.867Z,40.374581939799334
2022-11-29T12:37:28.588Z,40.78260869565217
2022-11-29T12:43:56.405Z,41.05016722408027
2022-11-29T12:56:49.556Z,42.779264214046826
2022-11-29T13:03:16.979Z,41.89297658862876
2022-11-29T13:09:44.866Z,46.08361204013378
2022-11-29T13:16:17.170Z,45.02341137123746
2022-11-29T13:22:47.838Z,46.5685618729097
2022-11-29T13:29:15.195Z,47.080267558528426
2022-11-29T13:35:42.339Z,46.862876254180605
2022-11-29T13:42:10.283Z,47.458193979933114
2022-11-29T13:49:44.885Z,50.4314381270903
2022-11-29T14:01:51.234Z,52.558528428093645
2022-11-29T14:08:18.841Z,56.19397993311037
2022-11-29T14:25:51.959Z,54.21739130434783
2022-11-29T14:36:15.257Z,54.47157190635451
2022-11-29T14:42:43.931Z,52.79933110367893
2022-11-29T14:49:10.925Z,54.7123745819398
2022-11-29T14:56:59.739Z,53.468227424749166
2022-11-29T15:03:26.861Z,54.046822742474916
2022-11-29T15:09:55.136Z,55.013377926421406
2022-11-29T15:19:53.701Z,53.30769230769231
2022-11-29T15:29:45.450Z,56.22742474916388
2022-11-29T15:36:13.181Z,56.23076923076923
2022-11-29T15:42:41.590Z,54.51170568561873
2022-11-29T15:49:09.216Z,55.070234113712374
2022-11-29T15:55:37.238Z,54.23076923076923
2022-11-29T16:05:42.385Z,57.441471571906355
2022-11-29T16:12:09.458Z,58.14046822742475
2022-11-29T16:18:38.690Z,57.54849498327759
2022-11-29T16:27:54.752Z,57.21070234113712
2022-11-29T16:39:14.936Z,58.735785953177256
2022-11-29T16:55:15.586Z,59.197324414715716
2022-11-29T17:01:43.928Z,60.60535117056856
2022-11-29T17:17:38.180Z,58.591973244147155
2022-11-29T17:26:53.966Z,60.4314381270903
2022-11-29T17:36:38.241Z,62.90969899665552
2022-11-29T17:43:06.749Z,61.123745819397996
2022-11-29T17:49:35.607Z,61.575250836120404
2022-11-29T17:56:02.944Z,62.33444816053512
2022-11-29T18:02:31.728Z,63.25752508361204
2022-11-29T18:09:00.308Z,64.49498327759197
2022-11-29T18:21:55.312Z,65.38127090301003
2022-11-29T18:28:25.560Z,65.51839464882943
2022-11-29T18:34:55.720Z,66.79598662207358
2022-11-29T18:41:23.108Z,67.76254180602007
2022-11-29T18:47:50.186Z,64.98996655518394
2022-11-29T18:54:16.691Z,66.60200668896321
2022-11-29T19:00:43.765Z,64.44816053511705
2022-11-29T19:11:13.496Z,65.72575250836121
2022-11-29T19:17:43.471Z,66.34448160535118
2022-11-29T19:24:11.803Z,65.35451505016722
2022-11-29T19:30:43.587Z,63.89297658862876
2022-11-29T19:37:16.070Z,65.9866220735786
2022-11-29T19:46:34.194Z,64.44816053511705
2022-11-29T19:53:59.389Z,62.69565217391305
2022-11-29T20:06:17.026Z,67.22073578595318
2022-11-29T20:13:38.905Z,66.5752508361204
2022-11-29T20:22:59.396Z,67.34782608695652
2022-11-29T20:29:30.600Z,67.4314381270903
2022-11-29T20:38:33.845Z,68.79933110367892
2022-11-29T20:45:05.732Z,64.82608695652173
2022-11-29T20:51:44.898Z,62.575250836120404
2022-11-29T20:58:28.735Z,63.2876254180602
2022-11-29T21:08:59.588Z,60.812709030100336
2022-11-29T21:15:34.472Z,59.39799331103679
2022-11-29T21:25:18.545Z,56.869565217391305
2022-11-29T21:31:48.248Z,59.94648829431438
2022-11-29T21:38:19.427Z,59.2943143812709
2022-11-29T21:45:15.226Z,55.575250836120404
2022-11-29T21:51:45.239Z,56.38795986622073
2022-11-29T22:01:00.671Z,52.11371237458194
2022-11-29T22:07:31.813Z,54.2943143812709
2022-11-29T22:19:04.060Z,52.17391304347826
2022-11-29T22:25:38.490Z,50.65551839464883
2022-11-29T22:36:23.142Z,51.735785953177256
2022-11-29T22:43:01.281Z,51.73913043478261
2022-11-29T22:53:07.837Z,52.802675585284284
2022-11-29T23:01:04.362Z,53.87959866220736
2022-11-29T23:13:17.592Z,55.62876254180602
2022-11-29T23:19:56.244Z,56.862876254180605
2022-11-29T23:38:14.647Z,54.64548494983278
2022-11-29T23:51:03.916Z,55.792642140468224
2022-11-29T23:57:36.161Z,55.60200668896321
